Time;durP1;ratioP1;P1;durP2;ratioP2;P2;SDS_P1;SDS_P2;PMS_P1;PMS_P2;Temp;Humidity;BMP_temperature;BMP_pressure;BME280_temperature;BME280_humidity;BME280_pressure;Samples;Min_cycle;Max_cycle;Signal;HPM_P1;HPM_P2
2024/04/27 00:00:34;;;;;;;5.13;3.88;;;8.00;60.80;;;3.30;100.00;94606.25;5356951;26;20457;-45
2024/04/27 00:03:00;;;;;;;5.63;3.20;;;8.00;60.90;;;3.27;100.00;94622.53;5343165;26;20044;-48
2024/04/27 00:05:26;;;;;;;10.85;3.20;;;8.00;60.80;;;3.22;100.00;94610.06;5344446;26;20019;-47
2024/04/27 00:07:52;;;;;;;4.18;2.95;;;8.00;61.60;;;3.20;100.00;94612.16;5357254;26;20007;-46
2024/04/27 00:10:18;;;;;;;4.35;3.00;;;8.00;60.80;;;3.14;100.00;94615.75;5361251;26;20102;-44
2024/04/27 00:12:44;;;;;;;5.68;3.28;;;7.90;60.70;;;3.09;100.00;94613.03;5358752;26;20044;-43
2024/04/27 00:15:10;;;;;;;4.55;3.30;;;7.90;60.70;;;3.06;100.00;94618.00;5345166;26;20016;-44
2024/04/27 00:17:36;;;;;;;4.28;3.50;;;7.90;60.70;;;3.04;100.00;94615.63;5364685;26;20019;-44
2024/04/27 00:20:03;;;;;;;3.58;2.92;;;7.80;61.50;;;3.02;100.00;94620.31;5345998;26;20015;-44
2024/04/27 00:22:29;;;;;;;3.97;3.22;;;7.80;60.70;;;2.99;100.00;94620.78;5343680;26;20005;-49
2024/04/27 00:24:54;;;;;;;5.32;3.35;;;7.80;60.70;;;2.89;100.00;94625.91;5372309;26;20026;-48
2024/04/27 00:27:20;;;;;;;6.32;3.10;;;7.70;60.70;;;2.83;100.00;94622.41;5361158;26;20015;-54
2024/04/27 00:29:46;;;;;;;4.60;2.88;;;7.70;60.70;;;2.78;100.00;94620.47;5364112;26;20061;-51
2024/04/27 00:32:14;;;;;;;8.90;3.80;;;7.60;60.50;;;2.68;100.00;94611.63;5346039;26;20001;-47
2024/04/27 00:34:41;;;;;;;6.30;3.75;;;7.60;60.60;;;2.62;100.00;94625.72;5348516;26;20791;-43
2024/04/27 00:37:07;;;;;;;5.15;3.50;;;7.50;60.60;;;2.60;100.00;94614.63;5344078;26;20012;-49
2024/04/27 00:39:34;;;;;;;5.25;3.80;;;7.50;60.70;;;2.61;100.00;94616.25;5355697;26;20503;-52
2024/04/27 00:42:01;;;;;;;4.93;3.75;;;7.40;60.80;;;2.53;100.00;94607.69;5362935;26;20022;-51
2024/04/27 00:44:27;;;;;;;6.78;3.90;;;7.40;60.90;;;2.51;100.00;94614.25;5350175;26;20003;-52
2024/04/27 00:46:53;;;;;;;4.95;3.80;;;7.30;60.90;;;2.46;100.00;94612.31;5341881;26;20008;-51
2024/04/27 00:49:21;;;;;;;4.85;3.40;;;7.30;61.00;;;2.41;100.00;94614.06;5343165;26;20014;-48
2024/04/27 00:51:51;;;;;;;5.63;4.00;;;7.30;61.10;;;2.40;100.00;94607.22;5341424;26;20444;-53
2024/04/27 00:54:19;;;;;;;6.65;4.38;;;7.20;61.20;;;2.40;100.00;94610.63;5355540;26;20043;-50
2024/04/27 00:56:45;;;;;;;6.70;4.50;;;7.20;61.30;;;2.41;100.00;94611.44;5350372;26;20089;-50
2024/04/27 00:59:12;;;;;;;9.45;4.82;;;7.20;61.50;;;2.36;100.00;94620.03;5362413;26;20008;-49
2024/04/27 01:01:38;;;;;;;6.63;4.55;;;7.20;61.60;;;2.35;100.00;94618.44;5350300;26;20348;-49
2024/04/27 01:04:04;;;;;;;5.00;4.05;;;7.10;61.50;;;2.33;100.00;94611.84;5312719;26;20084;-50
2024/04/27 01:06:30;;;;;;;6.18;4.22;;;7.10;61.60;;;2.27;100.00;94610.94;5343878;26;20502;-51
2024/04/27 01:08:56;;;;;;;6.93;4.43;;;7.10;61.60;;;2.29;100.00;94616.75;5363265;26;20012;-47
2024/04/27 01:11:22;;;;;;;5.63;3.97;;;7.10;61.60;;;2.27;100.00;94617.00;5360116;26;20009;-48
2024/04/27 01:13:54;;;;;;;7.72;4.90;;;7.10;61.70;;;2.31;100.00;94620.72;5354353;26;20016;-46
2024/04/27 01:16:27;;;;;;;9.32;4.75;;;7.10;62.20;;;2.35;100.00;94628.16;5344152;26;20007;-43
2024/04/27 01:18:54;;;;;;;6.75;4.70;;;7.10;61.90;;;2.34;100.00;94622.09;5350099;26;20052;-45
2024/04/27 01:21:21;;;;;;;6.20;4.47;;;7.10;61.90;;;2.31;100.00;94620.72;5347484;26;20019;-51
2024/04/27 01:23:47;;;;;;;7.13;4.07;;;7.00;61.80;;;2.27;100.00;94624.88;5357156;26;20009;-52
2024/04/27 01:26:13;;;;;;;5.20;3.92;;;7.00;61.70;;;2.25;100.00;94624.28;5347058;26;20008;-45
2024/04/27 01:28:39;;;;;;;8.50;4.75;;;7.00;61.70;;;2.24;100.00;94629.81;5353030;26;20076;-45
2024/04/27 01:31:05;;;;;;;6.63;4.72;;;7.00;61.80;;;2.19;100.00;94624.44;5363716;26;20008;-49
2024/04/27 01:33:31;;;;;;;7.05;4.10;;;7.00;61.80;;;2.13;100.00;94628.84;5366213;26;20023;-48
2024/04/27 01:35:57;;;;;;;8.15;4.95;;;7.00;61.80;;;2.05;100.00;94621.31;5366803;26;20012;-53
2024/04/27 01:38:23;;;;;;;6.45;4.95;;;6.90;61.70;;;2.03;100.00;94613.66;5367127;26;20008;-49
2024/04/27 01:40:48;;;;;;;8.32;5.10;;;6.90;61.70;;;2.02;100.00;94616.53;5367006;26;20011;-54
2024/04/27 01:43:14;;;;;;;8.18;5.43;;;6.90;61.80;;;2.04;100.00;94619.72;5359013;26;20007;-48
2024/04/27 01:45:40;;;;;;;6.40;4.95;;;6.80;61.80;;;2.03;100.00;94613.66;5344849;26;20036;-47
2024/04/27 01:48:07;;;;;;;8.43;5.20;;;6.80;62.00;;;2.01;100.00;94613.09;5343791;26;20053;-48
2024/04/27 01:50:32;;;;;;;7.15;5.45;;;6.80;62.00;;;2.02;100.00;94616.53;5365969;26;20110;-47
2024/04/27 01:52:58;;;;;;;10.50;5.55;;;6.80;62.20;;;2.03;100.00;94618.13;5366137;26;20011;-48
2024/04/27 01:55:24;;;;;;;8.98;5.65;;;6.80;62.20;;;2.00;100.00;94614.13;5365262;26;20008;-47
2024/04/27 01:57:50;;;;;;;8.70;5.45;;;6.80;62.20;;;1.94;100.00;94615.06;5366506;26;20084;-48
2024/04/27 02:00:16;;;;;;;8.57;5.28;;;6.80;62.30;;;1.93;100.00;94613.47;5362284;26;20070;-52
2024/04/27 02:02:42;;;;;;;11.52;5.97;;;6.80;62.30;;;1.91;100.00;94607.63;5366979;26;20391;-49
2024/04/27 02:05:07;;;;;;;8.68;5.45;;;6.70;62.30;;;1.93;100.00;94605.59;5362183;26;20007;-50
2024/04/27 02:07:33;;;;;;;8.40;5.78;;;6.70;62.40;;;1.99;100.00;94622.25;5366017;26;20022;-50
2024/04/27 02:09:59;;;;;;;11.48;6.28;;;6.70;62.50;;;2.01;100.00;94620.19;5365559;26;20403;-47
2024/04/27 02:12:25;;;;;;;8.70;5.65;;;6.70;62.60;;;2.01;100.00;94617.56;5362091;26;20012;-46
2024/04/27 02:14:51;;;;;;;8.88;6.25;;;6.70;62.60;;;1.98;100.00;94621.44;5343900;26;20020;-46
2024/04/27 02:20:01;;;;;;;7.93;5.70;;;6.70;62.60;;;2.02;100.00;94625.19;5364901;26;20030;-49
2024/04/27 02:22:27;;;;;;;6.97;5.35;;;6.70;62.70;;;2.03;100.00;94628.63;5364093;26;20012;-47
2024/04/27 02:24:53;;;;;;;7.13;5.13;;;6.70;62.70;;;1.95;100.00;94624.56;5355287;26;20008;-46
2024/04/27 02:27:19;;;;;;;9.32;6.05;;;6.70;62.70;;;1.93;100.00;94629.22;5346738;26;20081;-47
2024/04/27 02:29:45;;;;;;;12.90;5.82;;;6.80;62.70;;;1.92;100.00;94630.28;5342701;26;20031;-47
2024/04/27 02:32:10;;;;;;;10.60;6.35;;;6.70;62.70;;;1.93;100.00;94629.22;5360492;26;20008;-55
2024/04/27 02:34:36;;;;;;;8.98;5.35;;;6.70;62.70;;;1.91;100.00;94627.84;5366085;26;20019;-53
2024/04/27 02:37:02;;;;;;;8.68;6.25;;;6.70;62.70;;;1.84;100.00;94625.38;5355729;26;20015;-49
2024/04/27 02:39:28;;;;;;;7.50;5.95;;;6.70;62.70;;;1.77;100.00;94630.75;5356145;26;20093;-46
2024/04/27 02:41:56;;;;;;;10.90;6.45;;;6.70;62.70;;;1.75;100.00;94627.56;5365543;26;20021;-55
2024/04/27 02:44:22;;;;;;;9.70;6.18;;;6.60;62.60;;;1.74;100.00;94623.34;5349292;26;20025;-47
2024/04/27 02:46:48;;;;;;;7.47;5.70;;;6.60;62.70;;;1.78;100.00;94626.31;5343544;26;20020;-49
2024/04/27 02:49:13;;;;;;;10.40;6.50;;;6.60;62.70;;;1.80;100.00;94625.03;5353666;26;20379;-48
2024/04/27 02:51:39;;;;;;;11.75;6.65;;;6.60;62.80;;;1.81;100.00;94621.38;5365991;26;20018;-47
2024/04/27 02:54:05;;;;;;;9.55;5.70;;;6.60;62.80;;;1.79;100.00;94622.66;5364600;26;20003;-48
2024/04/27 02:56:31;;;;;;;8.50;5.80;;;6.60;62.70;;;1.70;100.00;94631.94;5365806;26;20016;-48
2024/04/27 02:58:57;;;;;;;8.57;5.30;;;6.60;62.60;;;1.57;100.00;94625.13;5364963;26;20378;-49
2024/04/27 03:01:22;;;;;;;11.32;5.90;;;6.50;62.60;;;1.46;100.00;94629.34;5363299;26;20024;-48
2024/04/27 03:03:48;;;;;;;9.73;5.60;;;6.50;62.60;;;1.49;100.00;94628.09;5357668;26;20008;-51
2024/04/27 03:06:14;;;;;;;10.63;6.20;;;6.40;62.60;;;1.50;100.00;94627.84;5349879;26;20038;-48
2024/04/27 03:08:44;;;;;;;12.90;6.88;;;6.40;62.50;;;1.51;100.00;94631.28;5354247;26;20014;-48
2024/04/27 03:11:10;;;;;;;10.88;6.95;;;6.40;62.70;;;1.44;100.00;94634.00;5355086;26;20008;-47
2024/04/27 03:13:36;;;;;;;10.15;6.78;;;6.30;62.70;;;1.44;100.00;94623.50;5347964;26;20512;-49
2024/04/27 03:16:02;;;;;;;14.20;8.02;;;6.30;62.70;;;1.45;100.00;94624.34;5362084;26;20084;-47
2024/04/27 03:18:30;;;;;;;13.98;7.85;;;6.30;62.80;;;1.45;100.00;94617.25;5359489;26;20026;-50
2024/04/27 03:20:56;;;;;;;12.55;7.40;;;6.30;63.10;;;1.45;100.00;94627.75;5360094;26;20008;-48
2024/04/27 03:23:22;;;;;;;13.52;7.75;;;6.30;63.20;;;1.48;100.00;94634.38;5331227;26;20012;-47
2024/04/27 03:25:48;;;;;;;11.43;7.50;;;6.30;63.20;;;1.42;100.00;94630.84;5347936;26;20019;-48
2024/04/27 03:28:14;;;;;;;12.88;7.20;;;6.30;63.30;;;1.46;100.00;94631.97;5360966;26;20012;-49
2024/04/27 03:30:40;;;;;;;11.13;7.13;;;6.30;63.30;;;1.41;100.00;94624.00;5349550;26;20111;-53
2024/04/27 03:33:05;;;;;;;11.35;6.82;;;6.30;63.20;;;1.37;100.00;94625.47;5359908;26;20057;-50
2024/04/27 03:35:31;;;;;;;10.98;7.07;;;6.30;63.20;;;1.34;100.00;94625.94;5354981;26;20481;-49
2024/04/27 03:37:57;;;;;;;13.15;7.05;;;6.20;63.10;;;1.31;100.00;94632.44;5360986;26;20011;-46
2024/04/27 03:40:23;;;;;;;13.02;8.02;;;6.20;63.10;;;1.32;100.00;94631.41;5323276;26;20466;-49
2024/04/27 03:42:49;;;;;;;10.70;7.32;;;6.20;63.20;;;1.31;100.00;94626.38;5358538;26;20004;-49
2024/04/27 03:45:16;;;;;;;12.82;7.00;;;6.20;63.20;;;1.29;100.00;94629.25;5348704;26;20003;-55
2024/04/27 03:47:42;;;;;;;12.30;7.70;;;6.20;63.30;;;1.38;100.00;94632.34;5357036;26;20004;-47
2024/04/27 03:50:08;;;;;;;14.45;7.25;;;6.20;63.30;;;1.35;100.00;94640.66;5348322;26;20012;-56
2024/04/27 03:52:34;;;;;;;13.55;8.18;;;6.20;63.30;;;1.42;100.00;94646.59;5343346;26;20015;-49
2024/04/27 03:55:00;;;;;;;12.75;7.88;;;6.20;63.60;;;1.45;100.00;94647.94;5357679;26;20004;-48
2024/04/27 03:57:27;;;;;;;13.55;7.30;;;6.20;63.60;;;1.41;100.00;94647.63;5345176;26;20035;-47
2024/04/27 03:59:53;;;;;;;12.63;7.53;;;6.20;63.70;;;1.42;100.00;94643.97;5361615;26;20007;-56
2024/04/27 04:02:18;;;;;;;14.57;7.78;;;6.20;63.60;;;1.48;100.00;94648.28;5349826;26;20117;-52
2024/04/27 04:04:44;;;;;;;15.40;7.22;;;6.20;64.40;;;1.34;100.00;94649.53;5365100;26;20351;-52
2024/04/27 04:07:10;;;;;;;12.65;7.38;;;6.20;63.60;;;1.34;100.00;94647.72;5363503;26;20008;-50
2024/04/27 04:09:36;;;;;;;12.93;7.55;;;6.20;63.50;;;1.26;100.00;94649.91;5359844;26;19999;-51
2024/04/27 04:12:02;;;;;;;11.65;7.15;;;6.20;63.50;;;1.30;100.00;94640.53;5369993;26;20018;-50
2024/04/27 04:14:28;;;;;;;14.13;7.85;;;6.20;63.50;;;1.26;100.00;94642.84;5347695;26;20475;-52
2024/04/27 04:16:53;;;;;;;14.63;7.72;;;6.10;63.40;;;1.23;100.00;94650.38;5357001;26;20041;-53
2024/04/27 04:19:19;;;;;;;13.73;8.50;;;6.10;63.50;;;1.27;100.00;94648.88;5360729;26;20004;-53
2024/04/27 04:21:45;;;;;;;15.25;8.05;;;6.20;63.60;;;1.30;100.00;94656.28;5315653;26;20398;-49
2024/04/27 04:24:13;;;;;;;17.08;8.95;;;6.10;63.60;;;1.24;100.00;94655.38;5363578;26;20379;-52
2024/04/27 04:26:41;;;;;;;16.95;8.93;;;6.10;63.60;;;1.23;100.00;94655.59;5352176;26;20014;-56
2024/04/27 04:29:06;;;;;;;15.35;8.90;;;6.10;63.60;;;1.23;100.00;94659.03;5362042;26;20340;-53
2024/04/27 04:31:32;;;;;;;16.40;8.48;;;6.10;63.70;;;1.20;100.00;94658.69;5351826;26;20360;-55
2024/04/27 04:33:59;;;;;;;19.23;9.93;;;6.10;63.60;;;1.23;100.00;94660.84;5311465;26;20004;-55
2024/04/27 04:36:25;;;;;;;35.58;10.07;;;6.10;63.70;;;1.24;100.00;94658.00;5355447;26;20040;-53
2024/04/27 04:38:51;;;;;;;17.50;9.52;;;6.20;63.90;;;1.25;100.00;94664.03;5366674;26;20409;-54
2024/04/27 04:41:17;;;;;;;16.65;9.15;;;6.20;64.00;;;1.27;100.00;94665.41;5361213;26;20015;-50
2024/04/27 04:43:43;;;;;;;18.63;8.60;;;6.20;64.00;;;1.25;100.00;94659.56;5359787;26;20020;-56
2024/04/27 04:46:09;;;;;;;19.45;8.55;;;6.20;63.90;;;1.24;100.00;94663.25;5350617;26;20470;-53
2024/04/27 04:48:35;;;;;;;17.15;9.30;;;6.20;63.80;;;1.26;100.00;94663.03;5343592;26;20005;-50
2024/04/27 04:51:01;;;;;;;17.67;9.05;;;6.30;63.90;;;1.30;100.00;94664.16;5354396;26;20004;-51
2024/04/27 04:53:31;;;;;;;17.13;8.80;;;6.30;63.90;;;1.35;100.00;94662.44;5350515;26;20005;-52
2024/04/27 04:55:58;;;;;;;17.00;9.52;;;6.40;64.00;;;1.51;100.00;94657.53;5368285;26;20018;-51
2024/04/27 04:58:28;;;;;;;15.48;8.15;;;6.50;64.10;;;1.74;100.00;94660.09;5364626;26;20008;-53
2024/04/27 05:00:55;;;;;;;12.10;7.43;;;6.50;64.00;;;1.96;100.00;94656.84;5370141;26;20022;-54
2024/04/27 05:03:21;;;;;;;9.98;7.05;;;6.70;64.20;;;2.20;100.00;94657.59;5348389;26;20019;-54
2024/04/27 05:05:47;;;;;;;13.90;7.43;;;6.90;64.30;;;2.42;100.00;94661.16;5314570;26;20367;-53
2024/04/27 05:08:13;;;;;;;15.23;8.30;;;7.10;64.50;;;2.69;100.00;94663.19;5354356;26;20035;-53
2024/04/27 05:10:42;;;;;;;12.23;9.10;;;7.30;64.60;;;2.96;100.00;94668.63;5366965;26;20007;-54
2024/04/27 05:13:09;;;;;;;15.00;8.75;;;7.60;64.70;;;3.25;100.00;94672.75;5357498;26;20050;-58
2024/04/27 05:15:34;;;;;;;11.57;8.02;;;7.80;64.70;;;3.56;100.00;94675.84;5335510;26;20004;-58
2024/04/27 05:18:01;;;;;;;8.65;6.72;;;8.20;64.80;;;3.91;100.00;94677.34;5314847;26;20045;-50
2024/04/27 05:20:27;;;;;;;12.00;6.95;;;8.50;64.70;;;4.05;100.00;94678.59;5345699;26;20011;-56
2024/04/27 05:22:54;;;;;;;7.40;5.63;;;8.90;64.50;;;4.34;100.00;94683.66;5357017;26;20003;-54
2024/04/27 05:25:20;;;;;;;8.52;5.93;;;9.30;64.30;;;4.66;100.00;94680.28;5346262;26;20008;-50
2024/04/27 05:27:45;;;;;;;9.02;5.50;;;9.70;64.20;;;4.91;100.00;94683.16;5345057;26;20055;-51
2024/04/27 05:30:12;;;;;;;8.85;5.95;;;10.00;63.80;;;5.22;100.00;94691.34;5345577;26;20483;-49
2024/04/27 05:32:37;;;;;;;7.38;5.68;;;10.40;64.30;;;5.50;100.00;94684.94;5344218;26;20004;-51
2024/04/27 05:35:04;;;;;;;6.00;4.80;;;10.80;63.30;;;5.85;100.00;94684.34;5349762;26;20315;-52
2024/04/27 05:37:30;;;;;;;6.20;5.00;;;11.20;63.00;;;6.16;100.00;94685.34;5353006;26;20433;-50
2024/04/27 05:39:55;;;;;;;8.25;4.70;;;11.60;62.80;;;6.32;100.00;94694.13;5367915;26;20026;-52
2024/04/27 05:42:21;;;;;;;10.15;4.97;;;12.00;62.50;;;6.29;100.00;94693.84;5364221;26;20305;-53
2024/04/27 05:44:47;;;;;;;5.78;4.88;;;12.10;61.90;;;6.30;100.00;94687.50;5356760;26;20015;-53
2024/04/27 05:47:13;;;;;;;9.07;4.18;;;12.30;61.70;;;6.30;100.00;94693.59;5363567;26;20007;-55
2024/04/27 05:49:38;;;;;;;5.18;3.92;;;12.50;61.20;;;6.39;100.00;94696.53;5353138;26;20005;-56
2024/04/27 05:52:04;;;;;;;5.80;4.50;;;12.60;60.60;;;6.57;100.00;94698.69;5345841;26;20012;-52
2024/04/27 05:54:30;;;;;;;4.13;3.70;;;12.70;60.10;;;6.77;100.00;94690.03;5343998;26;20500;-50
2024/04/27 05:56:56;;;;;;;6.10;3.95;;;12.90;59.80;;;7.00;100.00;94691.38;5314035;26;20020;-51
2024/04/27 05:59:22;;;;;;;4.57;3.65;;;13.20;59.50;;;7.23;100.00;94690.06;5354319;26;20253;-55
2024/04/27 06:01:47;;;;;;;5.45;3.53;;;13.40;59.20;;;7.50;100.00;94694.31;5361421;26;20022;-55
2024/04/27 06:04:13;;;;;;;4.40;3.50;;;13.70;58.90;;;7.76;100.00;94701.16;5347104;26;20367;-54
2024/04/27 06:06:39;;;;;;;3.67;3.33;;;13.90;58.60;;;7.88;100.00;94703.53;5349601;26;20007;-52
2024/04/27 06:09:05;;;;;;;5.15;3.33;;;14.10;58.80;;;8.04;100.00;94702.41;5363989;26;20008;-57
2024/04/27 06:11:31;;;;;;;3.97;3.40;;;14.30;57.80;;;8.17;98.45;94694.97;5365167;26;20355;-52
2024/04/27 06:13:56;;;;;;;5.35;4.00;;;14.50;57.60;;;8.21;97.38;94706.59;5355080;26;20473;-51
2024/04/27 06:16:22;;;;;;;4.32;3.72;;;14.70;57.20;;;8.24;97.40;94700.75;5363568;26;20020;-54
2024/04/27 06:18:48;;;;;;;3.80;3.40;;;14.90;56.90;;;8.51;98.14;94716.34;5365617;26;20011;-52
2024/04/27 06:21:14;;;;;;;6.50;3.60;;;15.20;56.60;;;8.85;97.17;94715.66;5363581;26;20535;-49
2024/04/27 06:23:40;;;;;;;4.85;3.70;;;15.40;56.10;;;9.10;94.90;94710.19;5367462;26;20392;-53
2024/04/27 06:26:06;;;;;;;4.38;3.17;;;15.70;55.90;;;9.30;93.03;94713.78;5362043;26;20072;-50
2024/04/27 06:28:31;;;;;;;5.70;3.67;;;15.80;55.50;;;9.50;90.69;94719.75;5364978;26;20015;-53
2024/04/27 06:30:57;;;;;;;4.03;3.25;;;15.90;55.20;;;9.65;88.50;94713.50;5366678;26;20034;-56
2024/04/27 06:33:25;;;;;;;4.13;3.15;;;16.10;54.90;;;9.78;87.33;94716.56;5363086;26;20027;-57
2024/04/27 06:35:53;;;;;;;4.15;3.75;;;16.20;54.60;;;10.01;86.51;94717.69;5366763;26;20008;-52
2024/04/27 06:38:19;;;;;;;5.50;3.47;;;16.50;54.30;;;10.03;85.21;94712.88;5355857;26;20048;-53
2024/04/27 06:40:45;;;;;;;3.50;3.20;;;16.70;54.00;;;10.30;84.01;94713.16;5366251;26;19999;-55
2024/04/27 06:43:11;;;;;;;6.28;3.17;;;16.90;53.60;;;10.60;84.89;94706.69;5357894;26;20017;-54
2024/04/27 06:45:37;;;;;;;6.30;3.75;;;17.20;53.30;;;10.77;81.25;94702.72;5355435;26;20068;-51
2024/04/27 06:48:03;;;;;;;4.15;3.10;;;17.40;53.00;;;11.04;81.55;94708.22;5364387;26;20011;-52
2024/04/27 06:50:29;;;;;;;3.22;2.92;;;17.60;52.60;;;11.21;79.67;94696.25;5364291;26;20008;-51
2024/04/27 06:52:55;;;;;;;3.35;3.00;;;17.80;52.30;;;11.44;80.83;94698.03;5343539;26;20086;-50
2024/04/27 06:55:21;;;;;;;5.15;3.20;;;18.00;52.00;;;11.81;81.07;94704.34;5314953;26;20381;-52
2024/04/27 06:57:47;;;;;;;3.33;2.97;;;18.30;51.70;;;12.12;74.18;94707.31;5349038;26;20014;-54
2024/04/27 07:00:13;;;;;;;4.55;3.00;;;18.60;51.00;;;12.34;71.28;94705.84;5356314;26;20000;-49
2024/04/27 07:02:39;;;;;;;3.58;2.78;;;18.90;50.30;;;12.66;69.01;94703.09;5347443;26;20012;-54
2024/04/27 07:05:05;;;;;;;3.78;2.67;;;19.10;49.50;;;13.10;67.74;94709.63;5360065;26;20538;-51
2024/04/27 07:07:31;;;;;;;4.68;2.75;;;19.40;49.10;;;13.51;65.39;94713.28;5345159;26;20554;-51
2024/04/27 07:09:57;;;;;;;3.00;2.70;;;19.80;48.80;;;13.81;64.97;94712.53;5357524;26;20008;-50
2024/04/27 07:12:22;;;;;;;3.33;2.80;;;20.20;48.50;;;14.07;64.99;94717.25;5346841;26;20011;-51
2024/04/27 07:14:48;;;;;;;5.75;2.90;;;20.50;48.00;;;14.21;63.75;94727.88;5366151;26;20004;-52
2024/04/27 07:17:14;;;;;;;4.47;3.40;;;20.80;47.40;;;14.14;63.47;94720.28;5361257;26;20355;-56
2024/04/27 07:19:40;;;;;;;3.38;2.17;;;21.10;46.80;;;14.34;56.73;94727.00;5341261;26;20012;-53
2024/04/27 07:22:06;;;;;;;3.53;2.55;;;21.40;45.90;;;14.55;59.87;94720.03;5344605;26;20020;-52
2024/04/27 07:24:32;;;;;;;2.30;2.10;;;21.60;45.20;;;14.88;53.00;94719.63;5317981;26;20019;-52
2024/04/27 07:26:57;;;;;;;2.45;2.13;;;21.90;44.30;;;15.15;55.25;94732.00;5342673;26;20078;-56
2024/04/27 07:29:23;;;;;;;5.20;2.63;;;22.20;43.80;;;15.56;54.38;94732.66;5345845;26;20047;-54
2024/04/27 07:31:49;;;;;;;6.78;2.78;;;22.40;43.10;;;15.85;53.35;94723.97;5358892;26;20043;-52
2024/04/27 07:34:15;;;;;;;3.08;2.72;;;22.60;42.60;;;16.00;52.65;94726.16;5362419;26;20011;-52
2024/04/27 07:36:41;;;;;;;2.60;2.38;;;22.90;42.30;;;16.20;52.03;94716.59;5358835;26;20016;-52
2024/04/27 07:39:06;;;;;;;2.53;2.20;;;23.10;41.70;;;16.61;49.84;94710.63;5361523;26;20019;-49
2024/04/27 07:41:34;;;;;;;2.35;2.15;;;23.40;41.00;;;16.92;48.71;94719.50;5354308;26;20046;-53
2024/04/27 07:44:00;;;;;;;3.45;2.25;;;23.60;40.40;;;17.19;47.13;94712.84;5355157;26;20037;-51
2024/04/27 07:46:26;;;;;;;2.90;1.92;;;23.90;39.70;;;17.25;46.56;94717.72;5354247;26;20011;-52
2024/04/27 07:48:52;;;;;;;4.40;2.65;;;24.00;38.90;;;17.26;45.06;94713.91;5340991;26;20025;-52
2024/04/27 07:51:21;;;;;;;2.33;2.13;;;24.20;38.30;;;17.53;44.36;94714.50;5345289;26;20008;-52
2024/04/27 07:53:50;;;;;;;2.33;2.13;;;24.40;37.60;;;17.66;45.18;94713.44;5348909;26;20020;-48
2024/04/27 07:56:16;;;;;;;2.40;2.13;;;24.60;37.00;;;17.71;43.41;94709.75;5343902;26;20022;-52
2024/04/27 07:58:42;;;;;;;3.92;2.22;;;24.80;36.50;;;17.89;42.66;94713.09;5343330;26;20020;-55
2024/04/27 08:01:08;;;;;;;3.42;2.08;;;25.00;35.80;;;18.29;41.82;94713.31;5361431;26;20019;-50
2024/04/27 08:03:34;;;;;;;2.58;1.80;;;25.10;35.40;;;18.47;40.87;94713.91;5345562;26;20008;-52
2024/04/27 08:06:00;;;;;;;2.47;2.22;;;25.40;34.90;;;18.73;42.28;94719.78;5353029;26;20078;-48
2024/04/27 08:08:26;;;;;;;2.45;2.22;;;25.60;34.60;;;19.09;39.93;94720.16;5361444;26;20019;-51
2024/04/27 08:10:51;;;;;;;2.33;2.13;;;25.80;34.20;;;19.21;40.85;94717.44;5354945;26;20491;-51
2024/04/27 08:13:17;;;;;;;3.20;2.30;;;26.00;33.80;;;19.56;41.63;94716.91;5353592;26;20018;-52
2024/04/27 08:15:43;;;;;;;2.10;1.90;;;26.30;33.70;;;19.88;40.45;94717.81;5365163;26;20101;-56
2024/04/27 08:18:09;;;;;;;3.38;2.00;;;26.50;33.50;;;20.21;39.11;94714.03;5361977;26;20011;-54
2024/04/27 08:20:35;;;;;;;3.97;2.30;;;26.70;33.10;;;20.26;38.30;94716.50;5342081;26;20016;-50
2024/04/27 08:23:01;;;;;;;2.58;2.38;;;27.00;32.60;;;20.41;39.23;94712.25;5352603;26;20007;-52
2024/04/27 08:25:26;;;;;;;3.60;2.97;;;27.20;32.20;;;20.39;38.71;94715.28;5358697;26;20025;-54
2024/04/27 08:27:54;;;;;;;2.72;2.40;;;27.30;31.60;;;20.27;39.45;94708.03;5365097;26;20020;-52
2024/04/27 08:30:20;;;;;;;3.17;2.97;;;27.40;31.10;;;20.44;39.06;94709.63;5360041;26;20020;-56
2024/04/27 08:32:46;;;;;;;3.10;2.90;;;27.40;30.90;;;20.58;39.22;94711.16;5349165;26;20020;-52
2024/04/27 08:35:11;;;;;;;2.80;2.60;;;27.50;30.80;;;20.81;39.04;94712.13;5345298;26;20093;-53
2024/04/27 08:37:37;;;;;;;4.70;3.10;;;27.60;30.70;;;20.79;38.33;94701.63;5364064;26;20018;-51
2024/04/27 08:40:04;;;;;;;4.07;3.20;;;27.60;30.30;;;20.26;38.64;94698.34;5363684;26;20030;-53
2024/04/27 08:42:30;;;;;;;3.42;3.05;;;27.70;30.10;;;20.03;39.08;94697.38;5358780;26;20085;-54
2024/04/27 08:44:59;;;;;;;3.53;3.15;;;27.70;29.80;;;20.27;39.14;94689.09;5362871;26;20016;-57
2024/04/27 08:47:26;;;;;;;4.75;3.20;;;27.60;29.60;;;20.25;37.87;94696.78;5326076;26;20039;-57
2024/04/27 08:49:58;;;;;;;3.58;2.88;;;27.60;29.40;;;20.27;37.85;94691.81;5339739;26;20158;-55
2024/04/27 08:52:24;;;;;;;3.28;2.97;;;27.60;29.30;;;20.28;37.56;94698.03;5344981;26;20080;-56
2024/04/27 08:54:50;;;;;;;3.47;2.90;;;27.60;29.40;;;20.60;38.49;94698.84;5349839;26;20420;-57
2024/04/27 08:57:20;;;;;;;5.10;3.65;;;27.70;29.40;;;20.64;39.36;94701.63;5350566;26;20012;-52
2024/04/27 08:59:48;;;;;;;3.50;3.20;;;27.80;29.50;;;20.90;38.11;94693.75;5339617;26;20012;-54
2024/04/27 09:02:14;;;;;;;3.20;2.90;;;27.80;29.40;;;20.58;37.90;94690.28;5348191;26;20016;-56
2024/04/27 09:04:51;;;;;;;3.28;2.35;;;27.90;29.30;;;20.11;37.59;94691.78;5341483;26;20001;-56
2024/04/27 09:07:17;;;;;;;2.70;2.50;;;28.00;28.90;;;20.52;37.41;94687.03;5343245;26;20475;-54
2024/04/27 09:09:43;;;;;;;3.28;2.92;;;28.00;28.90;;;20.89;36.81;94678.66;5363755;26;20022;-56
2024/04/27 09:12:09;;;;;;;3.38;3.08;;;28.00;28.80;;;21.36;36.84;94679.69;5360732;26;20021;-54
2024/04/27 09:14:34;;;;;;;4.32;3.65;;;28.20;28.80;;;21.81;37.39;94673.66;5359303;26;20077;-53
2024/04/27 09:17:00;;;;;;;3.63;3.13;;;28.50;29.00;;;21.84;36.72;94672.94;5351391;26;20020;-56
2024/04/27 09:19:32;;;;;;;3.72;3.40;;;28.70;28.70;;;21.59;37.55;94669.75;5362378;26;20425;-53
2024/04/27 09:21:59;;;;;;;6.03;3.47;;;28.80;28.50;;;21.47;38.89;94670.66;5364241;26;20638;-56
2024/04/27 09:24:25;;;;;;;4.45;4.05;;;28.80;28.40;;;21.16;40.27;94663.41;5355530;26;20026;-52
2024/04/27 09:26:51;;;;;;;4.18;3.72;;;28.80;28.40;;;20.99;40.39;94672.69;5350232;26;20012;-51
2024/04/27 09:29:17;;;;;;;4.38;3.97;;;28.70;28.50;;;21.20;38.62;94677.00;5346702;26;20011;-49
2024/04/27 09:31:43;;;;;;;4.68;4.20;;;28.70;28.40;;;21.38;39.01;94672.78;5358116;26;20095;-51
2024/04/27 09:34:10;;;;;;;5.28;3.92;;;28.60;28.50;;;21.48;40.00;94661.38;5346118;26;20015;-55
2024/04/27 09:36:48;;;;;;;4.03;3.50;;;28.60;28.70;;;21.64;39.70;94658.59;5358336;26;20019;-53
2024/04/27 09:39:33;;;;;;;4.68;4.28;;;28.60;28.70;;;21.10;39.42;94651.28;5363190;26;20094;-56
2024/04/27 09:42:04;;;;;;;4.60;4.20;;;28.70;28.60;;;21.12;39.71;94643.59;5347254;26;20483;-52
2024/04/27 09:44:53;;;;;;;4.40;3.95;;;28.60;28.40;;;20.83;38.37;94652.22;5359543;26;20498;-53
2024/04/27 09:47:28;;;;;;;4.40;4.00;;;28.60;28.60;;;20.55;40.62;94651.19;5351197;26;20018;-52
2024/04/27 09:50:10;;;;;;;4.38;3.97;;;28.60;28.70;;;21.16;38.73;94657.97;5357838;26;20009;-53
2024/04/27 09:52:51;;;;;;;3.90;3.60;;;28.60;28.60;;;21.60;38.18;94663.19;5366613;26;20015;-55
2024/04/27 09:55:18;;;;;;;5.20;3.97;;;28.70;28.70;;;21.99;37.33;94662.34;5356321;26;20355;-49
2024/04/27 09:57:50;;;;;;;4.10;3.70;;;28.80;28.60;;;22.29;35.84;94657.13;5342307;26;20012;-51
2024/04/27 10:00:17;;;;;;;4.82;3.85;;;28.90;28.20;;;22.33;35.13;94650.59;5364267;21;20464;-55
2024/04/27 10:02:45;;;;;;;4.72;4.22;;;29.10;28.10;;;22.28;35.69;94645.50;5311914;26;20416;-53
2024/04/27 10:05:14;;;;;;;4.93;3.35;;;29.30;27.90;;;22.36;37.67;94652.59;5313867;26;20012;-53
2024/04/27 10:07:39;;;;;;;4.00;3.47;;;29.40;28.00;;;22.49;37.28;94655.13;5324060;26;20023;-51
2024/04/27 10:10:26;;;;;;;4.10;3.40;;;29.50;28.40;;;22.74;34.57;94647.38;5337897;26;20009;-51
2024/04/27 10:13:04;;;;;;;4.25;3.67;;;29.70;27.60;;;22.86;35.42;94647.94;5333734;26;20043;-53
2024/04/27 10:15:31;;;;;;;3.85;3.45;;;29.90;27.40;;;22.95;35.18;94652.38;5306554;26;20048;-51
2024/04/27 10:17:57;;;;;;;4.68;3.70;;;30.00;27.20;;;23.03;36.02;94649.41;5332759;26;20004;-55
2024/04/27 10:20:42;;;;;;;5.57;3.50;;;30.10;27.30;;;23.37;35.49;94638.56;5324777;26;20016;-56